createdAt,value
2017-08-15T00:00:20.700Z,0
2017-08-15T00:01:20.731Z,0
2017-08-15T00:02:21.319Z,0
2017-08-15T00:03:21.094Z,0
2017-08-15T00:04:20.811Z,0
2017-08-15T00:05:21.167Z,0
2017-08-15T00:06:20.565Z,0
2017-08-15T00:07:20.921Z,0
2017-08-15T00:08:20.926Z,0
2017-08-15T00:09:20.649Z,0
2017-08-15T00:10:20.987Z,0
2017-08-15T00:11:21.012Z,0
2017-08-15T00:12:20.725Z,0
2017-08-15T00:13:21.642Z,0
2017-08-15T00:14:21.410Z,0
2017-08-15T00:15:21.434Z,0
2017-08-15T00:16:21.170Z,0
2017-08-15T00:17:21.193Z,0
2017-08-15T00:18:21.196Z,0
2017-08-15T00:19:20.930Z,0
2017-08-15T00:20:21.587Z,0
2017-08-15T00:21:20.986Z,0
2017-08-15T00:22:21.017Z,0
2017-08-15T00:23:21.657Z,0
2017-08-15T00:24:21.387Z,0
2017-08-15T00:25:21.416Z,0
2017-08-15T00:26:21.747Z,0
2017-08-15T00:27:21.160Z,0
2017-08-15T00:28:22.124Z,0
2017-08-15T00:29:21.222Z,0
2017-08-15T00:30:21.564Z,0
2017-08-15T00:31:21.270Z,0
2017-08-15T00:32:21.308Z,0
2017-08-15T00:33:22.261Z,0
2017-08-15T00:34:21.975Z,0
2017-08-15T00:35:21.067Z,0
2017-08-15T00:36:21.435Z,0
2017-08-15T00:37:21.441Z,0
2017-08-15T00:38:21.465Z,0
2017-08-15T00:39:22.126Z,0
2017-08-15T00:40:22.155Z,0
2017-08-15T00:41:22.184Z,0
2017-08-15T00:42:22.224Z,0
2017-08-15T00:43:22.542Z,0
2017-08-15T00:44:21.967Z,0
2017-08-15T00:45:21.675Z,0
2017-08-15T00:46:22.049Z,0
2017-08-15T00:47:22.046Z,0
2017-08-15T00:48:22.066Z,0
2017-08-15T00:49:22.103Z,0
2017-08-15T00:50:22.132Z,0
2017-08-15T00:51:22.156Z,0
2017-08-15T00:52:22.185Z,0
2017-08-15T00:53:22.822Z,0
2017-08-15T00:54:22.246Z,0
2017-08-15T00:55:22.271Z,0
2017-08-15T00:56:21.989Z,0
2017-08-15T00:57:22.018Z,0
2017-08-15T00:58:22.346Z,0
2017-08-15T00:59:22.706Z,0
2017-08-15T01:00:22.724Z,0
2017-08-15T01:01:22.444Z,0
2017-08-15T01:02:21.845Z,0
2017-08-15T01:03:22.491Z,0
2017-08-15T01:04:22.855Z,0
2017-08-15T01:05:22.551Z,0
2017-08-15T01:06:22.897Z,0
2017-08-15T01:07:22.621Z,0
2017-08-15T01:08:22.896Z,0
2017-08-15T01:09:22.983Z,0
2017-08-15T01:10:22.712Z,0
2017-08-15T01:11:22.736Z,0
2017-08-15T01:12:23.083Z,0
2017-08-15T01:13:22.735Z,0
2017-08-15T01:14:22.497Z,0
2017-08-15T01:15:22.528Z,0
2017-08-15T01:16:22.880Z,0
2017-08-15T01:17:22.899Z,0
2017-08-15T01:18:23.290Z,0
2017-08-15T01:19:22.955Z,0
2017-08-15T01:20:23.316Z,0
2017-08-15T01:21:23.018Z,0
2017-08-15T01:22:23.050Z,0
2017-08-15T01:23:23.687Z,0
2017-08-15T01:24:23.103Z,0
2017-08-15T01:25:23.133Z,0
2017-08-15T01:26:23.166Z,0
2017-08-15T01:27:23.186Z,0
2017-08-15T01:28:23.787Z,0
2017-08-15T01:29:23.252Z,0
2017-08-15T01:30:22.964Z,0
2017-08-15T01:31:22.996Z,0
2017-08-15T01:32:23.333Z,0
2017-08-15T01:33:23.658Z,0
2017-08-15T01:34:23.081Z,0
2017-08-15T01:35:23.104Z,0
2017-08-15T01:36:23.774Z,0
2017-08-15T01:37:23.778Z,0
2017-08-15T01:38:25.254Z,0
2017-08-15T01:39:23.536Z,0
2017-08-15T01:40:23.564Z,0
2017-08-15T01:41:23.585Z,0
2017-08-15T01:42:23.630Z,0
2017-08-15T01:43:23.354Z,0
2017-08-15T01:44:23.359Z,0
2017-08-15T01:45:23.698Z,0
2017-08-15T01:46:24.041Z,0
2017-08-15T01:47:23.446Z,0
2017-08-15T01:48:23.788Z,0
2017-08-15T01:49:23.511Z,0
2017-08-15T01:50:23.848Z,0
2017-08-15T01:51:24.185Z,0
2017-08-15T01:52:24.217Z,0
2017-08-15T01:53:24.243Z,0
2017-08-15T01:54:23.957Z,0
2017-08-15T01:55:23.973Z,0
2017-08-15T01:56:24.324Z,0
2017-08-15T01:57:24.065Z,0
2017-08-15T01:58:24.075Z,0
2017-08-15T01:59:24.108Z,0
2017-08-15T02:00:24.128Z,0
2017-08-15T02:01:23.846Z,0
2017-08-15T02:02:24.179Z,0
2017-08-15T02:03:24.221Z,0
2017-08-15T02:04:24.243Z,0
2017-08-15T02:05:24.268Z,0
2017-08-15T02:06:24.300Z,0
2017-08-15T02:07:24.329Z,0
2017-08-15T02:08:23.731Z,0
2017-08-15T02:09:24.076Z,0
2017-08-15T02:10:24.728Z,0
2017-08-15T02:11:24.449Z,0
2017-08-15T02:12:24.778Z,0
2017-08-15T02:13:24.515Z,0
2017-08-15T02:14:24.533Z,0
2017-08-15T02:15:24.557Z,0
2017-08-15T02:16:24.264Z,0
2017-08-15T02:17:24.611Z,0
2017-08-15T02:18:24.644Z,0
2017-08-15T02:19:24.047Z,0
2017-08-15T02:20:25.018Z,0
2017-08-15T02:21:24.728Z,0
2017-08-15T02:22:25.058Z,0
2017-08-15T02:23:25.127Z,0
2017-08-15T02:24:24.500Z,0
2017-08-15T02:25:24.833Z,0
2017-08-15T02:26:25.181Z,0
2017-08-15T02:27:24.578Z,0
2017-08-15T02:28:25.235Z,0
2017-08-15T02:29:24.956Z,0
2017-08-15T02:30:25.297Z,0
2017-08-15T02:31:25.001Z,0
2017-08-15T02:32:24.727Z,0
2017-08-15T02:33:25.071Z,0
2017-08-15T02:34:25.422Z,0
2017-08-15T02:35:25.449Z,0
2017-08-15T02:36:24.829Z,0
2017-08-15T02:37:25.187Z,0
2017-08-15T02:38:24.891Z,0
2017-08-15T02:39:25.560Z,0
2017-08-15T02:40:24.959Z,0
2017-08-15T02:41:25.300Z,0
2017-08-15T02:42:25.014Z,0
2017-08-15T02:43:25.355Z,0
2017-08-15T02:44:25.699Z,0
2017-08-15T02:45:25.411Z,0
2017-08-15T02:46:25.749Z,0
2017-08-15T02:47:25.779Z,0
2017-08-15T02:48:25.192Z,0
2017-08-15T02:49:25.841Z,0
2017-08-15T02:50:25.550Z,0
2017-08-15T02:51:25.591Z,0
2017-08-15T02:52:25.610Z,0
2017-08-15T02:53:25.328Z,0
2017-08-15T02:54:25.971Z,0
2017-08-15T02:55:25.693Z,0
2017-08-15T02:56:25.722Z,0
2017-08-15T02:57:25.751Z,0
2017-08-15T02:58:26.087Z,0
2017-08-15T02:59:25.496Z,0
2017-08-15T03:00:25.827Z,0
2017-08-15T03:01:25.892Z,0
2017-08-15T03:02:25.890Z,0
2017-08-15T03:03:25.607Z,0
2017-08-15T03:04:25.936Z,0
2017-08-15T03:05:26.818Z,0
2017-08-15T03:06:26.326Z,0
2017-08-15T03:07:26.350Z,0
2017-08-15T03:08:26.368Z,0
2017-08-15T03:09:26.653Z,0
2017-08-15T03:10:25.799Z,0
2017-08-15T03:11:25.829Z,0
2017-08-15T03:12:26.175Z,0
2017-08-15T03:13:26.201Z,0
2017-08-15T03:14:26.218Z,0
2017-08-15T03:15:25.949Z,0
2017-08-15T03:16:26.280Z,0
2017-08-15T03:17:25.693Z,0
2017-08-15T03:18:26.342Z,0
2017-08-15T03:19:26.633Z,0
2017-08-15T03:20:26.432Z,0
2017-08-15T03:21:26.126Z,0
2017-08-15T03:22:26.454Z,0
2017-08-15T03:23:26.792Z,0
2017-08-15T03:24:26.804Z,0
2017-08-15T03:25:26.535Z,0
2017-08-15T03:26:26.895Z,0
2017-08-15T03:27:25.978Z,0
2017-08-15T03:28:26.316Z,0
2017-08-15T03:29:27.280Z,0
2017-08-15T03:30:27.002Z,0
2017-08-15T03:31:26.713Z,0
2017-08-15T03:32:27.046Z,0
2017-08-15T03:33:26.763Z,0
2017-08-15T03:34:27.407Z,0
2017-08-15T03:35:27.137Z,0
2017-08-15T03:36:26.856Z,0
2017-08-15T03:37:27.198Z,0
2017-08-15T03:38:26.611Z,0
2017-08-15T03:39:27.552Z,0
2017-08-15T03:40:26.961Z,0
2017-08-15T03:41:26.680Z,0
2017-08-15T03:42:27.022Z,0
2017-08-15T03:43:27.355Z,0
2017-08-15T03:44:27.692Z,0
2017-08-15T03:45:27.113Z,0
2017-08-15T03:46:26.826Z,0
2017-08-15T03:47:27.162Z,0
2017-08-15T03:48:26.880Z,0
2017-08-15T03:49:27.213Z,0
2017-08-15T03:50:26.937Z,0
2017-08-15T03:51:27.279Z,0
2017-08-15T03:52:27.615Z,0
2017-08-15T03:53:27.647Z,0
2017-08-15T03:54:27.669Z,0
2017-08-15T03:55:27.083Z,0
2017-08-15T03:56:27.732Z,0
2017-08-15T03:57:27.744Z,0
2017-08-15T03:58:27.472Z,0
2017-08-15T03:59:28.173Z,0
2017-08-15T04:00:27.533Z,0
2017-08-15T04:01:27.875Z,4
2017-08-15T04:04:11.680Z,4
2017-08-15T04:04:36.873Z,4
2017-08-15T04:05:36.593Z,4
2017-08-15T04:06:36.334Z,8
2017-08-15T04:07:36.024Z,4
2017-08-15T04:08:36.356Z,8
2017-08-15T04:09:36.693Z,8
2017-08-15T04:10:36.733Z,12
2017-08-15T04:11:36.447Z,12
2017-08-15T04:12:36.485Z,12
2017-08-15T04:13:36.514Z,16
2017-08-15T04:14:36.792Z,16
2017-08-15T04:15:36.245Z,20
2017-08-15T04:16:36.903Z,20
2017-08-15T04:17:36.935Z,24
2017-08-15T04:18:36.651Z,28
2017-08-15T04:19:36.925Z,28
2017-08-15T04:20:37.026Z,32
2017-08-15T04:21:36.734Z,36
2017-08-15T04:22:36.783Z,40
2017-08-15T04:23:36.795Z,44
2017-08-15T04:24:37.109Z,44
2017-08-15T04:25:36.843Z,52
2017-08-15T04:26:37.186Z,56
2017-08-15T04:27:36.911Z,60
2017-08-15T04:28:37.248Z,68
2017-08-15T04:29:37.269Z,68
2017-08-15T04:30:37.297Z,76
2017-08-15T04:31:37.032Z,84
2017-08-15T04:32:37.355Z,88
2017-08-15T04:33:37.065Z,96
2017-08-15T04:34:37.095Z,100
2017-08-15T04:35:37.446Z,108
2017-08-15T04:36:37.153Z,116
2017-08-15T04:37:37.499Z,120
2017-08-15T04:38:37.210Z,128
2017-08-15T04:39:37.593Z,132
2017-08-15T04:40:37.582Z,140
2017-08-15T04:41:37.305Z,148
2017-08-15T04:42:37.645Z,152
2017-08-15T04:43:37.038Z,160
2017-08-15T04:44:37.398Z,168
2017-08-15T04:45:37.417Z,176
2017-08-15T04:46:37.133Z,180
2017-08-15T04:47:37.791Z,192
2017-08-15T04:48:37.199Z,200
2017-08-15T04:49:38.129Z,208
2017-08-15T04:50:37.870Z,220
2017-08-15T04:51:37.578Z,228
2017-08-15T04:52:37.607Z,240
2017-08-15T04:53:37.331Z,252
2017-08-15T04:54:38.278Z,264
2017-08-15T04:55:37.393Z,268
2017-08-15T04:56:37.722Z,268
2017-08-15T04:57:38.053Z,272
2017-08-15T04:58:38.107Z,276
2017-08-15T04:59:38.110Z,284
2017-08-15T05:00:37.213Z,288
2017-08-15T05:01:37.549Z,296
2017-08-15T05:02:37.884Z,300
2017-08-15T05:03:37.604Z,304
2017-08-15T05:04:38.565Z,312
2017-08-15T05:05:38.292Z,316
2017-08-15T05:06:38.006Z,328
2017-08-15T05:07:38.352Z,332
2017-08-15T05:08:38.377Z,344
2017-08-15T05:09:38.657Z,348
2017-08-15T05:10:38.120Z,356
2017-08-15T05:11:37.829Z,368
2017-08-15T05:12:38.176Z,372
2017-08-15T05:13:37.885Z,380
2017-08-15T05:14:37.916Z,384
2017-08-15T05:15:38.258Z,392
2017-08-15T05:16:38.589Z,400
2017-08-15T05:17:38.632Z,404
2017-08-15T05:18:38.344Z,412
2017-08-15T05:19:38.065Z,420
2017-08-15T05:20:38.399Z,428
2017-08-15T05:21:38.119Z,436
2017-08-15T05:22:38.480Z,444
2017-08-15T05:23:38.793Z,448
2017-08-15T05:24:38.514Z,456
2017-08-15T05:25:38.559Z,464
2017-08-15T05:26:38.566Z,464
2017-08-15T05:27:38.292Z,472
2017-08-15T05:28:38.611Z,476
2017-08-15T05:29:38.025Z,476
2017-08-15T05:30:39.294Z,480
2017-08-15T05:31:39.015Z,480
2017-08-15T05:32:38.428Z,484
2017-08-15T05:33:38.761Z,488
2017-08-15T05:34:38.792Z,496
2017-08-15T05:35:39.437Z,500
2017-08-15T05:36:39.146Z,508
2017-08-15T05:37:39.196Z,516
2017-08-15T05:38:38.918Z,524
2017-08-15T05:39:39.249Z,532
2017-08-15T05:40:39.522Z,548
2017-08-15T05:41:38.983Z,560
2017-08-15T05:42:38.704Z,572
2017-08-15T05:43:38.732Z,588
2017-08-15T05:44:39.380Z,608
2017-08-15T05:45:39.711Z,624
2017-08-15T05:46:39.439Z,640
2017-08-15T05:47:38.532Z,660
2017-08-15T05:48:39.192Z,684
2017-08-15T05:49:39.216Z,704
2017-08-15T05:50:39.223Z,732
2017-08-15T05:51:39.583Z,748
2017-08-15T05:52:39.604Z,764
2017-08-15T05:53:39.038Z,780
2017-08-15T05:54:39.664Z,800
2017-08-15T05:55:39.991Z,820
2017-08-15T05:56:39.406Z,828
2017-08-15T05:57:39.143Z,840
2017-08-15T05:58:39.469Z,844
2017-08-15T05:59:39.805Z,844
2017-08-15T06:00:39.543Z,844
2017-08-15T06:01:39.235Z,848
2017-08-15T06:02:39.273Z,852
2017-08-15T06:03:39.608Z,856
2017-08-15T06:04:39.325Z,860
2017-08-15T06:05:39.959Z,868
2017-08-15T06:06:40.012Z,872
2017-08-15T06:07:39.728Z,884
2017-08-15T06:08:39.432Z,880
2017-08-15T06:09:39.784Z,880
2017-08-15T06:10:39.802Z,884
2017-08-15T06:11:39.531Z,876
2017-08-15T06:12:39.864Z,888
2017-08-15T06:13:39.893Z,888
2017-08-15T06:14:39.919Z,888
2017-08-15T06:15:40.559Z,868
2017-08-15T06:16:39.987Z,848
2017-08-15T06:17:39.999Z,828
2017-08-15T06:18:40.029Z,812
2017-08-15T06:19:40.060Z,792
2017-08-15T06:20:40.710Z,784
2017-08-15T06:21:40.124Z,784
2017-08-15T06:22:40.456Z,776
2017-08-15T06:23:40.482Z,772
2017-08-15T06:24:40.506Z,768
2017-08-15T06:25:40.522Z,760
2017-08-15T06:26:40.594Z,752
2017-08-15T06:27:40.600Z,740
2017-08-15T06:28:40.644Z,728
2017-08-15T06:29:40.650Z,732
2017-08-15T06:30:40.937Z,732
2017-08-15T06:31:40.707Z,736
2017-08-15T06:32:40.119Z,732
2017-08-15T06:33:40.766Z,740
2017-08-15T06:34:40.482Z,744
2017-08-15T06:35:40.451Z,752
2017-08-15T06:36:40.227Z,752
2017-08-15T06:37:40.573Z,760
2017-08-15T06:38:40.588Z,772
2017-08-15T06:39:40.941Z,784
2017-08-15T06:40:41.254Z,788
2017-08-15T06:41:40.991Z,800
2017-08-15T06:42:41.027Z,804
2017-08-15T06:43:41.047Z,808
2017-08-15T06:44:41.073Z,812
2017-08-15T06:45:40.478Z,816
2017-08-15T06:46:40.511Z,820
2017-08-15T06:47:41.165Z,816
2017-08-15T06:48:40.565Z,828
2017-08-15T06:49:40.902Z,832
2017-08-15T06:50:40.934Z,832
2017-08-15T06:51:40.959Z,840
2017-08-15T06:52:40.985Z,844
2017-08-15T06:53:40.709Z,848
2017-08-15T06:54:41.046Z,852
2017-08-15T06:55:41.074Z,860
2017-08-15T06:56:41.108Z,864
2017-08-15T06:57:41.140Z,872
2017-08-15T06:58:41.484Z,876
2017-08-15T06:59:41.518Z,880
2017-08-15T07:00:41.214Z,884
2017-08-15T07:01:40.932Z,888
2017-08-15T07:02:41.005Z,888
2017-08-15T07:03:41.616Z,892
2017-08-15T07:04:41.638Z,892
2017-08-15T07:05:41.362Z,896
2017-08-15T07:06:41.704Z,896
2017-08-15T07:07:41.412Z,904
2017-08-15T07:08:41.433Z,904
2017-08-15T07:09:41.482Z,908
2017-08-15T07:10:41.187Z,916
2017-08-15T07:11:41.515Z,916
2017-08-15T07:12:41.871Z,924
2017-08-15T07:13:41.586Z,928
2017-08-15T07:14:41.601Z,936
2017-08-15T07:15:41.329Z,944
2017-08-15T07:16:41.597Z,952
2017-08-15T07:17:41.696Z,968
2017-08-15T07:18:42.033Z,980
2017-08-15T07:19:41.760Z,996
2017-08-15T07:20:41.787Z,1016
2017-08-15T07:21:42.112Z,1028
2017-08-15T07:22:42.152Z,1040
2017-08-15T07:23:41.864Z,1052
2017-08-15T07:24:41.578Z,1068
2017-08-15T07:25:41.927Z,1080
2017-08-15T07:26:41.940Z,1100
2017-08-15T07:27:41.670Z,1120
2017-08-15T07:28:42.028Z,1140
2017-08-15T07:29:42.035Z,1156
2017-08-15T07:30:41.754Z,1180
2017-08-15T07:31:42.679Z,1200
2017-08-15T07:32:42.472Z,1224
2017-08-15T07:33:42.485Z,1248
2017-08-15T07:34:42.182Z,1284
2017-08-15T07:35:42.515Z,1356
2017-08-15T07:36:42.562Z,1480
2017-08-15T07:37:42.577Z,1684
2017-08-15T07:38:42.601Z,1592
2017-08-15T07:39:42.625Z,1484
2017-08-15T07:40:42.371Z,1652
2017-08-15T07:41:42.623Z,1836
2017-08-15T07:42:42.733Z,1904
2017-08-15T07:43:42.119Z,1700
2017-08-15T07:44:42.782Z,1520
2017-08-15T07:45:42.818Z,1472
2017-08-15T07:46:43.135Z,1484
2017-08-15T07:47:42.868Z,1440
2017-08-15T07:48:42.891Z,1468
2017-08-15T07:49:42.613Z,1544
2017-08-15T07:50:42.324Z,1548
2017-08-15T07:51:42.920Z,1552
2017-08-15T07:52:42.693Z,1608
2017-08-15T07:53:42.724Z,1708
2017-08-15T07:54:42.756Z,1756
2017-08-15T07:55:43.091Z,1820
2017-08-15T07:56:43.376Z,1692
2017-08-15T07:57:43.149Z,1684
2017-08-15T07:58:43.178Z,1664
2017-08-15T07:59:43.224Z,1672
2017-08-15T08:00:42.920Z,1716
2017-08-15T08:01:43.562Z,1900
2017-08-15T08:02:42.665Z,2096
2017-08-15T08:03:43.322Z,2076
2017-08-15T08:04:43.359Z,2048
2017-08-15T08:05:43.060Z,2016
2017-08-15T08:06:43.083Z,2116
2017-08-15T08:07:42.805Z,1916
2017-08-15T08:08:43.155Z,1884
2017-08-15T08:09:43.178Z,1784
2017-08-15T08:10:43.223Z,1712
2017-08-15T08:11:43.239Z,1792
2017-08-15T08:12:43.263Z,1980
2017-08-15T08:13:43.610Z,2224
2017-08-15T08:14:43.630Z,2368
2017-08-15T08:15:43.040Z,2496
2017-08-15T08:16:43.689Z,2584
2017-08-15T08:17:43.441Z,2988
2017-08-15T08:18:43.434Z,3256
2017-08-15T08:19:43.778Z,3216
2017-08-15T08:20:43.494Z,3000
2017-08-15T08:21:43.827Z,2772
2017-08-15T08:22:43.882Z,2488
2017-08-15T08:23:43.890Z,2252
2017-08-15T08:24:43.287Z,2312
2017-08-15T08:25:43.951Z,2516
2017-08-15T08:26:44.333Z,2784
2017-08-15T08:27:43.697Z,3008
2017-08-15T08:28:44.061Z,3036
2017-08-15T08:29:43.750Z,2952
2017-08-15T08:30:43.785Z,2772
2017-08-15T08:31:43.817Z,2748
2017-08-15T08:32:44.153Z,2992
2017-08-15T08:33:44.173Z,3320
2017-08-15T08:34:43.902Z,3720
2017-08-15T08:35:43.931Z,3936
2017-08-15T08:36:43.956Z,3896
2017-08-15T08:37:44.318Z,3868
2017-08-15T08:38:44.015Z,3932
2017-08-15T08:39:44.047Z,4172
2017-08-15T08:40:44.072Z,4168
2017-08-15T08:41:43.797Z,4304
2017-08-15T08:42:44.701Z,4388
2017-08-15T08:43:44.162Z,4412
2017-08-15T08:44:44.512Z,4320
2017-08-15T08:45:44.546Z,4232
2017-08-15T08:46:44.242Z,4160
2017-08-15T08:47:44.257Z,4100
2017-08-15T08:48:44.618Z,4120
2017-08-15T08:49:44.647Z,4160
2017-08-15T08:50:44.385Z,4152
2017-08-15T08:51:44.711Z,4096
2017-08-15T08:52:44.966Z,4052
2017-08-15T08:53:44.455Z,4012
2017-08-15T08:54:44.488Z,3976
2017-08-15T08:55:44.511Z,3956
2017-08-15T08:56:44.221Z,3916
2017-08-15T08:57:44.822Z,3884
2017-08-15T08:58:44.903Z,3868
2017-08-15T08:59:44.304Z,3844
2017-08-15T09:00:44.959Z,3856
2017-08-15T09:01:44.980Z,3872
2017-08-15T09:02:45.014Z,3884
2017-08-15T09:03:45.074Z,3896
2017-08-15T09:04:45.082Z,3948
2017-08-15T09:05:45.133Z,4024
2017-08-15T09:06:44.837Z,4140
2017-08-15T09:07:45.478Z,4196
2017-08-15T09:08:44.884Z,4168
2017-08-15T09:09:44.920Z,4084
2017-08-15T09:10:45.259Z,4028
2017-08-15T09:11:44.657Z,4040
2017-08-15T09:12:45.294Z,4092
2017-08-15T09:13:45.347Z,4224
2017-08-15T09:14:45.371Z,4412
2017-08-15T09:15:45.107Z,4408
2017-08-15T09:16:45.115Z,4500
2017-08-15T09:17:45.126Z,4552
2017-08-15T09:18:45.532Z,4616
2017-08-15T09:19:45.202Z,4708
2017-08-15T09:20:45.236Z,4832
2017-08-15T09:21:45.261Z,4988
2017-08-15T09:22:45.258Z,5156
2017-08-15T09:23:45.010Z,5272
2017-08-15T09:24:45.660Z,5276
2017-08-15T09:25:45.374Z,5348
2017-08-15T09:26:45.725Z,5356
2017-08-15T09:27:45.735Z,5136
2017-08-15T09:28:45.460Z,4700
2017-08-15T09:29:45.497Z,4316
2017-08-15T09:30:45.521Z,4100
2017-08-15T09:31:45.551Z,3640
2017-08-15T09:32:45.565Z,3216
2017-08-15T09:33:45.622Z,3132
2017-08-15T09:34:45.950Z,3260
2017-08-15T09:35:45.676Z,3796
2017-08-15T09:36:45.387Z,3784
2017-08-15T09:37:45.978Z,3552
2017-08-15T09:38:45.759Z,3312
2017-08-15T09:39:45.784Z,3920
2017-08-15T09:40:45.520Z,4248
2017-08-15T09:41:45.566Z,4384
2017-08-15T09:42:46.192Z,4468
2017-08-15T09:43:45.913Z,4296
2017-08-15T09:44:45.941Z,3864
2017-08-15T09:45:46.268Z,3808
2017-08-15T09:46:45.681Z,3616
2017-08-15T09:47:46.581Z,3376
2017-08-15T09:48:46.364Z,3440
2017-08-15T09:49:46.396Z,4048
2017-08-15T09:50:46.105Z,4528
2017-08-15T09:51:45.839Z,4768
2017-08-15T09:52:46.276Z,4912
2017-08-15T09:53:46.507Z,4948
2017-08-15T09:54:46.228Z,4344
2017-08-15T09:55:46.253Z,3200
2017-08-15T09:56:46.592Z,2556
2017-08-15T09:57:46.568Z,2388
2017-08-15T09:58:46.337Z,2772
2017-08-15T09:59:46.679Z,3056
2017-08-15T10:00:46.400Z,2804
2017-08-15T10:01:46.430Z,2248
2017-08-15T10:02:47.068Z,1896
2017-08-15T10:03:46.486Z,1828
2017-08-15T10:04:46.232Z,1900
2017-08-15T10:05:46.861Z,1916
2017-08-15T10:06:46.588Z,1996
2017-08-15T10:07:47.230Z,2096
2017-08-15T10:08:46.940Z,2232
2017-08-15T10:09:46.668Z,2508
2017-08-15T10:10:46.384Z,2564
2017-08-15T10:11:47.029Z,2264
2017-08-15T10:12:47.073Z,2060
2017-08-15T10:13:46.772Z,1964
2017-08-15T10:14:47.126Z,1576
2017-08-15T10:15:46.525Z,920
2017-08-15T10:16:46.872Z,620
2017-08-15T10:17:46.923Z,508
2017-08-15T10:18:46.921Z,372
2017-08-15T10:19:47.289Z,264
2017-08-15T10:20:46.990Z,180
2017-08-15T10:21:46.383Z,292
2017-08-15T10:22:47.347Z,360
2017-08-15T10:23:47.388Z,384
2017-08-15T10:24:47.425Z,372
2017-08-15T10:25:47.437Z,316
2017-08-15T10:26:47.165Z,224
2017-08-15T10:27:47.196Z,176
2017-08-15T10:28:47.529Z,164
2017-08-15T10:29:47.244Z,224
2017-08-15T10:30:47.589Z,220
2017-08-15T10:31:47.617Z,196
2017-08-15T10:32:47.041Z,192
2017-08-15T10:33:47.053Z,204
2017-08-15T10:34:47.077Z,196
2017-08-15T10:35:47.110Z,172
2017-08-15T10:36:47.445Z,152
2017-08-15T10:37:47.487Z,148
2017-08-15T10:38:47.516Z,152
2017-08-15T10:39:47.536Z,160
2017-08-15T10:40:47.253Z,172
2017-08-15T10:41:47.898Z,184
2017-08-15T10:42:47.942Z,192
2017-08-15T10:43:47.953Z,188
2017-08-15T10:44:47.368Z,184
2017-08-15T10:45:47.405Z,184
2017-08-15T10:46:47.431Z,180
2017-08-15T10:47:47.459Z,180
2017-08-15T10:48:47.783Z,180
2017-08-15T10:49:47.833Z,180
2017-08-15T10:50:47.540Z,192
2017-08-15T10:51:48.197Z,204
2017-08-15T10:52:47.286Z,216
2017-08-15T10:53:48.244Z,220
2017-08-15T10:54:48.285Z,228
2017-08-15T10:55:48.318Z,232
2017-08-15T10:56:48.371Z,240
2017-08-15T10:57:48.060Z,248
2017-08-15T10:58:48.651Z,256
2017-08-15T10:59:48.134Z,260
2017-08-15T11:00:48.142Z,272
2017-08-15T11:01:48.492Z,284
2017-08-15T11:02:48.216Z,288
2017-08-15T11:03:48.837Z,300
2017-08-15T11:04:48.265Z,316
2017-08-15T11:05:48.281Z,336
2017-08-15T11:06:48.323Z,364
2017-08-15T11:07:48.376Z,404
2017-08-15T11:08:49.002Z,440
2017-08-15T11:09:48.398Z,480
2017-08-15T11:10:48.771Z,508
2017-08-15T11:11:48.151Z,516
2017-08-15T11:12:48.518Z,544
2017-08-15T11:13:48.835Z,616
2017-08-15T11:14:48.557Z,704
2017-08-15T11:15:48.584Z,776
2017-08-15T11:16:48.603Z,820
2017-08-15T11:17:48.948Z,848
2017-08-15T11:18:49.279Z,932
2017-08-15T11:19:48.693Z,1064
2017-08-15T11:20:48.728Z,1192
2017-08-15T11:21:48.757Z,1232
2017-08-15T11:22:48.792Z,1228
2017-08-15T11:23:49.123Z,1292
2017-08-15T11:24:49.154Z,1392
2017-08-15T11:25:48.886Z,1508
2017-08-15T11:26:49.215Z,1672
2017-08-15T11:27:49.239Z,1884
2017-08-15T11:28:48.592Z,2084
2017-08-15T11:29:48.666Z,2096
2017-08-15T11:30:49.326Z,2108
2017-08-15T11:31:49.042Z,1780
2017-08-15T11:32:48.754Z,1540
2017-08-15T11:33:49.037Z,1324
2017-08-15T11:34:48.826Z,1124
2017-08-15T11:35:48.546Z,932
2017-08-15T11:36:49.495Z,788
2017-08-15T11:37:49.224Z,720
2017-08-15T11:38:49.853Z,692
2017-08-15T11:39:49.277Z,676
2017-08-15T11:40:49.639Z,664
2017-08-15T11:41:49.657Z,664
2017-08-15T11:42:49.356Z,676
2017-08-15T11:43:49.694Z,688
2017-08-15T11:44:49.737Z,708
2017-08-15T11:45:48.818Z,748
2017-08-15T11:46:49.806Z,788
2017-08-15T11:47:49.808Z,820
2017-08-15T11:48:49.802Z,860
2017-08-15T11:49:49.564Z,908
2017-08-15T11:50:49.593Z,948
2017-08-15T11:51:49.314Z,1004
2017-08-15T11:52:49.355Z,1056
2017-08-15T11:53:50.277Z,1124
2017-08-15T11:54:49.399Z,1192
2017-08-15T11:55:50.062Z,1264
2017-08-15T11:56:49.782Z,1372
2017-08-15T11:57:49.492Z,1504
2017-08-15T11:58:50.070Z,1732
2017-08-15T11:59:49.859Z,1980
2017-08-15T12:00:49.891Z,2208
2017-08-15T12:01:49.912Z,2440
2017-08-15T12:02:49.944Z,2780
2017-08-15T12:03:50.585Z,3276
2017-08-15T12:04:50.306Z,3964
2017-08-15T12:05:50.347Z,5040
2017-08-15T12:06:49.457Z,6396
2017-08-15T12:07:49.769Z,9288
2017-08-15T12:08:49.735Z,13048
2017-08-15T12:09:50.134Z,7900
2017-08-15T12:10:50.477Z,6476
2017-08-15T12:11:50.196Z,5796
2017-08-15T12:12:49.917Z,5636
2017-08-15T12:13:50.245Z,5664
2017-08-15T12:14:50.611Z,5940
2017-08-15T12:15:50.657Z,5840
2017-08-15T12:16:50.028Z,6444
2017-08-15T12:17:50.696Z,7436
2017-08-15T12:18:50.729Z,8500
2017-08-15T12:19:50.421Z,13004
2017-08-15T12:20:50.761Z,20672
2017-08-15T12:21:50.802Z,35072
2017-08-15T12:22:50.204Z,13660
2017-08-15T12:23:51.129Z,10600
2017-08-15T12:24:50.254Z,7660
2017-08-15T12:25:50.598Z,7744
2017-08-15T12:26:50.663Z,7228
2017-08-15T12:27:50.977Z,7372
2017-08-15T12:28:50.998Z,6420
2017-08-15T12:29:50.118Z,10176
2017-08-15T12:30:50.746Z,10292
2017-08-15T12:31:50.160Z,7136
2017-08-15T12:32:50.803Z,6328
2017-08-15T12:33:51.150Z,5000
2017-08-15T12:34:51.171Z,3912
2017-08-15T12:35:50.271Z,3804
2017-08-15T12:36:50.923Z,4096
2017-08-15T12:37:50.948Z,4456
2017-08-15T12:38:51.013Z,4896
2017-08-15T12:39:51.026Z,4624
2017-08-15T12:40:50.736Z,4060
2017-08-15T12:41:51.396Z,3816
2017-08-15T12:42:51.409Z,3896
2017-08-15T12:43:51.130Z,3892
2017-08-15T12:44:51.479Z,3960
2017-08-15T12:45:51.185Z,4368
2017-08-15T12:46:51.536Z,4440
2017-08-15T12:47:50.948Z,4268
2017-08-15T12:48:51.591Z,4480
2017-08-15T12:49:51.624Z,5076
2017-08-15T12:50:51.032Z,5688
2017-08-15T12:51:51.357Z,6292
2017-08-15T12:52:51.720Z,6684
2017-08-15T12:53:51.734Z,7096
2017-08-15T12:54:51.796Z,7516
2017-08-15T12:55:51.800Z,7676
2017-08-15T12:56:51.512Z,7476
2017-08-15T12:57:51.865Z,7396
2017-08-15T12:58:51.565Z,7144
2017-08-15T12:59:51.540Z,6664
2017-08-15T13:00:51.636Z,7584
2017-08-15T13:01:51.344Z,8124
2017-08-15T13:02:52.001Z,9600
2017-08-15T13:03:52.038Z,15064
2017-08-15T13:04:51.740Z,10328
2017-08-15T13:05:52.095Z,9332
2017-08-15T13:06:52.112Z,7580
2017-08-15T13:07:51.835Z,5800
2017-08-15T13:08:53.613Z,4416
2017-08-15T13:09:51.884Z,3780
2017-08-15T13:10:52.038Z,3424
2017-08-15T13:11:51.771Z,3476
2017-08-15T13:12:52.344Z,3636
2017-08-15T13:13:51.726Z,3688
2017-08-15T13:14:52.078Z,4100
2017-08-15T13:15:52.074Z,4508
2017-08-15T13:16:51.780Z,4552
2017-08-15T13:17:51.790Z,4236
2017-08-15T13:18:52.141Z,3912
2017-08-15T13:19:52.815Z,4092
2017-08-15T13:20:52.209Z,4816
2017-08-15T13:21:52.229Z,5976
2017-08-15T13:22:52.261Z,7880
2017-08-15T13:23:52.306Z,9376
2017-08-15T13:24:52.689Z,8020
2017-08-15T13:25:52.351Z,6440
2017-08-15T13:26:52.388Z,5476
2017-08-15T13:27:52.417Z,4508
2017-08-15T13:28:52.753Z,3996
2017-08-15T13:29:53.056Z,3404
2017-08-15T13:30:52.812Z,3104
2017-08-15T13:31:52.854Z,3092
2017-08-15T13:32:52.878Z,3484
2017-08-15T13:33:52.900Z,3972
2017-08-15T13:34:53.229Z,4888
2017-08-15T13:35:52.345Z,6420
2017-08-15T13:36:52.705Z,7736
2017-08-15T13:37:53.014Z,9272
2017-08-15T13:38:52.811Z,8808
2017-08-15T13:39:52.740Z,9252
2017-08-15T13:40:52.799Z,10676
2017-08-15T13:41:52.857Z,10896
2017-08-15T13:42:53.165Z,14300
2017-08-15T13:43:52.870Z,15852
2017-08-15T13:44:53.346Z,13884
2017-08-15T13:45:53.266Z,13684
2017-08-15T13:46:52.644Z,15920
2017-08-15T13:47:52.668Z,19392
2017-08-15T13:48:53.325Z,22112
2017-08-15T13:49:53.045Z,19520
2017-08-15T13:50:53.074Z,18052
2017-08-15T13:51:53.109Z,14740
2017-08-15T13:52:53.435Z,13900
2017-08-15T13:53:53.155Z,9528